Time;durP1;ratioP1;P1;durP2;ratioP2;P2;SDS_P1;SDS_P2;PMS_P1;PMS_P2;Temp;Humidity;BMP_temperature;BMP_pressure;BME280_temperature;BME280_humidity;BME280_pressure;Samples;Min_cycle;Max_cycle;Signal;HPM_P1;HPM_P2
2021/01/28 00:01:14;;;;;;;35.20;4.80;;;20.40;99.90;;;;;;5051386;28;20241;-72
2021/01/28 00:03:42;;;;;;;25.63;3.60;;;20.30;99.90;;;;;;5052367;28;20528;-70
2021/01/28 00:06:09;;;;;;;24.23;3.60;;;20.30;99.90;;;;;;5051733;28;20183;-70
2021/01/28 00:08:38;;;;;;;34.30;4.70;;;20.40;99.90;;;;;;5050007;28;20187;-69
2021/01/28 00:11:05;;;;;;;21.77;3.80;;;20.40;99.90;;;;;;5047303;28;20172;-70
2021/01/28 00:13:32;;;;;;;24.17;4.00;;;20.30;99.90;;;;;;5048821;28;20207;-71
2021/01/28 00:16:00;;;;;;;18.33;3.90;;;20.20;99.90;;;;;;5051471;28;20211;-70
2021/01/28 00:18:27;;;;;;;20.40;4.10;;;20.20;99.90;;;;;;5052398;28;20188;-70
2021/01/28 00:20:54;;;;;;;20.93;4.33;;;20.20;99.90;;;;;;5052495;28;20183;-69
2021/01/28 00:23:22;;;;;;;22.30;3.67;;;20.20;99.90;;;;;;5051475;28;20609;-70
2021/01/28 00:25:49;;;;;;;26.43;4.07;;;20.20;99.90;;;;;;4970462;28;2332245;-69
2021/01/28 00:28:21;;;;;;;29.73;4.83;;;20.20;99.90;;;;;;5053213;28;20183;-70
2021/01/28 00:30:51;;;;;;;25.80;4.10;;;20.20;99.90;;;;;;5053538;28;20180;-72
2021/01/28 00:33:22;;;;;;;27.13;3.27;;;20.10;99.90;;;;;;5053632;28;20180;-71
2021/01/28 00:35:52;;;;;;;19.80;3.43;;;20.20;99.90;;;;;;5034139;28;20230;-71
2021/01/28 00:38:26;;;;;;;19.53;4.30;;;20.30;99.90;;;;;;5033373;28;20173;-71
2021/01/28 00:40:55;;;;;;;29.00;3.60;;;20.30;99.90;;;;;;5046347;28;20176;-71
2021/01/28 00:43:23;;;;;;;24.13;4.07;;;20.40;99.90;;;;;;5052269;28;20596;-72
2021/01/28 00:45:51;;;;;;;16.00;3.30;;;20.40;99.90;;;;;;5053359;28;20717;-72
2021/01/28 00:48:19;;;;;;;19.60;3.87;;;20.70;99.90;;;;;;5053476;28;20627;-72
2021/01/28 00:50:48;;;;;;;20.60;4.43;;;20.70;99.90;;;;;;5053319;28;20184;-71
2021/01/28 00:53:17;;;;;;;18.03;3.47;;;20.90;99.90;;;;;;5052745;28;20172;-71
2021/01/28 00:55:44;;;;;;;23.17;3.73;;;21.00;99.90;;;;;;5052906;28;20223;-71
2021/01/28 00:58:16;;;;;;;14.17;3.53;;;21.10;99.90;;;;;;5053335;28;20184;-71
2021/01/28 01:00:45;;;;;;;16.17;3.10;;;21.30;99.90;;;;;;5053339;28;20176;-69
2021/01/28 01:03:15;;;;;;;19.67;3.60;;;21.20;99.80;;;;;;5053424;28;20271;-70
2021/01/28 01:05:44;;;;;;;20.57;3.07;;;21.30;99.90;;;;;;5053318;28;20175;-69
2021/01/28 01:08:21;;;;;;;16.27;3.07;;;21.40;99.00;;;;;;5052627;28;20184;-70
2021/01/28 01:10:52;;;;;;;16.57;2.73;;;21.50;99.20;;;;;;5052617;28;20538;-70
2021/01/28 01:13:26;;;;;;;20.17;3.87;;;21.60;99.40;;;;;;5052201;28;20574;-70
2021/01/28 01:15:54;;;;;;;17.30;3.00;;;21.60;99.10;;;;;;5051907;28;20216;-69
2021/01/28 01:18:26;;;;;;;20.57;3.23;;;21.70;98.90;;;;;;5052970;28;20512;-69
2021/01/28 01:20:53;;;;;;;18.73;3.37;;;21.70;98.30;;;;;;5052592;28;20638;-69
2021/01/28 01:23:21;;;;;;;32.53;12.80;;;21.70;98.70;;;;;;5053356;28;20201;-69
2021/01/28 01:25:49;;;;;;;16.87;3.67;;;21.80;98.90;;;;;;5052717;28;20322;-70
2021/01/28 01:28:16;;;;;;;23.03;3.83;;;21.90;97.20;;;;;;5053269;28;20638;-71
2021/01/28 01:30:44;;;;;;;22.00;3.93;;;21.90;97.60;;;;;;5051973;28;20238;-68
2021/01/28 01:33:12;;;;;;;20.27;3.57;;;22.10;97.40;;;;;;5052654;28;20192;-69
2021/01/28 01:35:40;;;;;;;18.83;3.67;;;22.30;97.20;;;;;;5053058;28;20215;-69
2021/01/28 01:38:08;;;;;;;21.57;4.20;;;22.40;96.90;;;;;;5052315;28;20183;-69
2021/01/28 01:40:52;;;;;;;16.23;3.47;;;22.60;96.00;;;;;;5051710;28;20259;-69
2021/01/28 01:43:19;;;;;;;13.07;2.97;;;22.40;95.90;;;;;;5033215;28;20180;-70
2021/01/28 01:45:50;;;;;;;14.43;3.40;;;22.40;95.40;;;;;;5044528;28;20180;-69
2021/01/28 01:48:28;;;;;;;20.43;3.87;;;22.50;95.80;;;;;;5052286;28;20187;-70
2021/01/28 01:51:11;;;;;;;21.43;3.33;;;22.60;96.00;;;;;;5052521;28;20271;-69
2021/01/28 01:54:21;;;;;;;21.63;3.60;;;22.50;95.90;;;;;;5052891;28;20164;-71
2021/01/28 01:56:59;;;;;;;18.23;2.60;;;22.60;96.00;;;;;;5050586;28;20227;-70
2021/01/28 01:59:47;;;;;;;19.23;3.00;;;22.70;95.80;;;;;;5047171;28;20214;-70
2021/01/28 02:02:19;;;;;;;21.47;3.43;;;22.80;96.10;;;;;;5052709;28;20540;-69
2021/01/28 02:04:50;;;;;;;15.60;2.93;;;22.90;95.30;;;;;;5052819;28;20183;-70
2021/01/28 02:07:24;;;;;;;21.20;3.17;;;22.70;95.20;;;;;;5052907;28;20172;-71
2021/01/28 02:09:52;;;;;;;16.10;3.40;;;22.70;95.20;;;;;;5052385;28;20186;-73
2021/01/28 02:12:20;;;;;;;26.23;3.63;;;22.70;95.00;;;;;;5051006;28;20251;-73
2021/01/28 02:14:50;;;;;;;17.37;3.10;;;22.60;95.10;;;;;;5050575;28;20286;-69
2021/01/28 02:17:21;;;;;;;17.57;2.97;;;22.60;94.60;;;;;;5051556;28;20219;-70
2021/01/28 02:19:52;;;;;;;13.77;2.90;;;22.60;95.00;;;;;;5051828;28;20188;-70
2021/01/28 02:22:34;;;;;;;18.00;3.23;;;22.70;95.10;;;;;;5049042;28;20626;-70
2021/01/28 02:25:04;;;;;;;14.67;2.97;;;22.80;95.00;;;;;;5051894;28;20184;-72
2021/01/28 02:27:32;;;;;;;13.83;3.20;;;22.90;94.60;;;;;;5050718;28;20857;-70
2021/01/28 02:30:00;;;;;;;17.60;2.93;;;22.70;95.00;;;;;;5051358;28;20682;-69
2021/01/28 02:32:27;;;;;;;15.93;3.30;;;22.80;94.80;;;;;;5051451;28;20187;-68
2021/01/28 02:34:54;;;;;;;12.80;2.70;;;22.80;95.00;;;;;;5066955;28;20654;-69
2021/01/28 02:37:23;;;;;;;13.57;2.83;;;22.80;94.90;;;;;;5052179;28;20768;-68
2021/01/28 02:39:50;;;;;;;12.00;2.73;;;22.90;95.10;;;;;;5051908;28;20318;-67
2021/01/28 02:42:32;;;;;;;17.53;3.10;;;23.00;94.80;;;;;;5050085;28;20326;-68
2021/01/28 02:45:00;;;;;;;14.77;2.40;;;23.00;94.30;;;;;;5051629;28;20172;-70
2021/01/28 02:47:27;;;;;;;12.57;2.37;;;23.10;93.70;;;;;;5050404;28;20634;-70
2021/01/28 02:49:55;;;;;;;14.93;2.97;;;23.20;93.70;;;;;;5052180;28;20214;-70
2021/01/28 02:52:22;;;;;;;16.10;2.87;;;23.40;93.80;;;;;;5051986;28;20187;-71
2021/01/28 02:54:53;;;;;;;16.83;2.77;;;23.40;93.70;;;;;;5051448;28;20184;-67
2021/01/28 02:57:21;;;;;;;14.30;2.43;;;23.60;93.60;;;;;;5067063;28;20661;-70
2021/01/28 02:59:48;;;;;;;13.53;3.20;;;23.50;93.60;;;;;;5051034;28;20222;-68
2021/01/28 03:02:19;;;;;;;22.70;3.53;;;23.30;93.60;;;;;;5051129;28;20546;-68
2021/01/28 03:04:47;;;;;;;21.37;2.97;;;23.40;94.30;;;;;;5050686;28;20184;-69
2021/01/28 03:07:16;;;;;;;18.60;3.30;;;23.40;94.20;;;;;;5049387;28;20187;-70
2021/01/28 03:09:43;;;;;;;13.03;3.27;;;23.30;94.70;;;;;;5051674;28;20213;-68
2021/01/28 03:12:11;;;;;;;21.83;3.10;;;23.30;94.70;;;;;;5050836;28;20271;-68
2021/01/28 03:14:38;;;;;;;11.60;2.80;;;23.30;94.50;;;;;;5050295;28;20535;-68
2021/01/28 03:17:06;;;;;;;17.70;3.55;;;23.20;94.70;;;;;;5050970;28;20425;-70
2021/01/28 03:19:35;;;;;;;19.87;3.13;;;23.20;94.50;;;;;;5051545;28;21289;-71
2021/01/28 03:22:02;;;;;;;19.70;3.43;;;23.30;94.60;;;;;;5041568;28;20199;-68
2021/01/28 03:24:30;;;;;;;16.77;3.50;;;23.40;94.50;;;;;;5055493;28;20187;-67
2021/01/28 03:26:57;;;;;;;23.17;3.47;;;23.40;94.30;;;;;;5054973;28;20240;-68
2021/01/28 03:29:24;;;;;;;14.07;2.90;;;23.30;94.60;;;;;;5055387;28;20176;-68
2021/01/28 03:31:52;;;;;;;18.93;3.70;;;23.30;94.90;;;;;;5054879;28;20238;-67
2021/01/28 03:34:19;;;;;;;23.13;3.00;;;23.20;95.00;;;;;;5055358;28;20227;-69
2021/01/28 03:36:47;;;;;;;20.13;3.50;;;23.00;95.40;;;;;;5055058;28;20269;-70
2021/01/28 03:39:14;;;;;;;17.27;3.20;;;22.90;95.50;;;;;;5054953;28;20183;-71
2021/01/28 03:41:41;;;;;;;17.33;2.50;;;22.80;95.80;;;;;;5054699;28;20179;-69
2021/01/28 03:44:09;;;;;;;20.80;2.97;;;22.80;95.90;;;;;;5054247;28;20218;-70
2021/01/28 03:46:36;;;;;;;18.03;3.40;;;22.80;96.10;;;;;;5054812;28;20635;-69
2021/01/28 03:49:03;;;;;;;24.03;3.33;;;22.60;96.20;;;;;;5054543;28;20262;-69
2021/01/28 03:51:31;;;;;;;23.73;3.43;;;22.50;98.00;;;;;;5054860;28;20241;-68
2021/01/28 03:53:58;;;;;;;14.40;3.20;;;22.30;97.80;;;;;;5054337;28;20654;-68
2021/01/28 03:56:26;;;;;;;21.07;4.27;;;22.30;97.70;;;;;;5054562;28;20239;-68
2021/01/28 03:58:53;;;;;;;16.57;2.83;;;22.30;97.00;;;;;;5054404;28;20261;-69
2021/01/28 04:01:20;;;;;;;18.23;3.37;;;22.30;97.10;;;;;;5054786;28;20199;-69
2021/01/28 04:03:48;;;;;;;17.67;3.80;;;22.40;97.10;;;;;;5050981;28;20181;-69
2021/01/28 04:06:15;;;;;;;20.93;3.20;;;22.40;97.70;;;;;;5045106;28;20180;-71
2021/01/28 04:08:43;;;;;;;18.97;3.63;;;22.20;97.50;;;;;;5053704;28;20463;-71
2021/01/28 04:11:10;;;;;;;17.10;3.20;;;22.10;98.10;;;;;;5053633;28;20191;-69
2021/01/28 04:13:38;;;;;;;20.43;3.73;;;21.90;99.90;;;;;;5053999;28;20176;-70
2021/01/28 04:16:05;;;;;;;13.30;3.43;;;21.50;99.90;;;;;;5053000;28;20230;-72
2021/01/28 04:18:32;;;;;;;25.83;3.23;;;21.30;99.90;;;;;;5054543;28;20227;-69
2021/01/28 04:21:00;;;;;;;17.80;3.23;;;21.10;99.90;;;;;;5054201;28;20184;-71
2021/01/28 04:23:27;;;;;;;14.07;3.40;;;21.10;99.90;;;;;;5049524;28;20215;-71
2021/01/28 04:25:55;;;;;;;21.43;3.23;;;21.00;99.90;;;;;;5053988;28;20314;-71
2021/01/28 04:28:22;;;;;;;22.17;3.63;;;20.90;99.90;;;;;;5052959;28;20211;-70
2021/01/28 04:30:49;;;;;;;19.97;3.40;;;21.00;99.90;;;;;;5052076;28;20179;-71
2021/01/28 04:33:16;;;;;;;26.00;3.47;;;20.90;99.90;;;;;;5053634;28;20188;-71
2021/01/28 04:35:44;;;;;;;17.93;3.03;;;21.00;99.90;;;;;;5053937;28;20234;-69
2021/01/28 04:38:11;;;;;;;15.80;3.10;;;21.00;99.90;;;;;;5053806;28;20192;-71
2021/01/28 04:40:49;;;;;;;18.90;3.83;;;21.00;99.90;;;;;;5053602;28;20549;-70
2021/01/28 04:43:25;;;;;;;26.60;4.27;;;21.10;99.90;;;;;;5050494;28;20205;-70
2021/01/28 04:45:56;;;;;;;18.07;3.67;;;21.10;99.90;;;;;;5040271;28;20642;-73
2021/01/28 04:48:24;;;;;;;17.90;3.53;;;21.20;99.90;;;;;;5052308;28;20184;-73
2021/01/28 04:50:52;;;;;;;17.70;2.80;;;21.10;99.90;;;;;;5047537;28;20266;-71
2021/01/28 04:53:42;;;;;;;19.57;3.47;;;21.10;99.90;;;;;;5053437;28;20172;-72
2021/01/28 04:56:17;;;;;;;20.63;3.30;;;21.00;99.90;;;;;;5041036;28;20803;-70
2021/01/28 04:58:45;;;;;;;24.33;3.43;;;20.90;99.90;;;;;;5053290;28;20179;-71
2021/01/28 05:01:12;;;;;;;23.50;4.60;;;20.80;99.90;;;;;;5053359;28;20512;-71
2021/01/28 05:03:48;;;;;;;27.70;3.60;;;20.70;99.90;;;;;;5053428;28;20187;-70
2021/01/28 05:06:16;;;;;;;22.13;3.57;;;20.80;99.90;;;;;;5053373;28;20192;-72
2021/01/28 05:08:43;;;;;;;25.97;3.70;;;20.80;99.90;;;;;;5052839;28;20571;-72
2021/01/28 05:11:26;;;;;;;26.33;4.50;;;20.80;99.90;;;;;;5052155;28;20184;-72
2021/01/28 05:13:54;;;;;;;16.83;3.67;;;20.80;99.90;;;;;;5048712;28;20715;-72
2021/01/28 05:16:46;;;;;;;19.30;3.43;;;20.80;99.90;;;;;;5052559;28;20242;-73
2021/01/28 05:19:34;;;;;;;18.67;3.07;;;21.00;99.90;;;;;;5044716;28;20228;-72
2021/01/28 05:22:23;;;;;;;19.00;3.83;;;21.00;99.90;;;;;;5051018;28;20176;-71
2021/01/28 05:24:57;;;;;;;20.70;3.13;;;21.10;99.90;;;;;;5051411;28;20538;-72
2021/01/28 05:27:25;;;;;;;23.23;3.97;;;21.30;99.90;;;;;;5050408;28;20694;-71
2021/01/28 05:30:00;;;;;;;20.97;3.90;;;21.40;99.90;;;;;;5052524;28;20188;-72
2021/01/28 05:32:43;;;;;;;26.53;3.87;;;21.50;99.90;;;;;;5051614;28;20234;-72
2021/01/28 05:35:26;;;;;;;24.73;3.60;;;21.50;99.90;;;;;;5049815;28;20669;-72
2021/01/28 05:38:19;;;;;;;22.23;3.47;;;21.60;99.90;;;;;;5047355;28;20188;-71
2021/01/28 05:40:56;;;;;;;25.23;3.60;;;21.70;99.90;;;;;;5051722;28;20500;-71
2021/01/28 05:43:42;;;;;;;17.57;3.43;;;21.70;99.90;;;;;;5050063;28;20649;-71
2021/01/28 05:46:12;;;;;;;20.83;3.97;;;21.70;99.90;;;;;;5050790;28;20184;-70
2021/01/28 05:48:40;;;;;;;15.33;3.03;;;21.50;99.90;;;;;;5047971;28;20179;-70
2021/01/28 05:51:13;;;;;;;14.33;2.63;;;21.40;99.90;;;;;;5050712;28;20176;-71
2021/01/28 05:53:56;;;;;;;17.73;2.50;;;21.20;99.90;;;;;;5046998;28;20179;-70
2021/01/28 05:56:24;;;;;;;27.17;3.30;;;21.20;99.90;;;;;;5051220;28;20211;-70
2021/01/28 05:59:05;;;;;;;22.57;3.67;;;21.20;99.90;;;;;;5046613;28;20676;-71
2021/01/28 06:01:35;;;;;;;15.33;2.80;;;21.20;99.90;;;;;;5048318;28;20179;-71
2021/01/28 06:04:16;;;;;;;17.50;3.03;;;21.20;99.90;;;;;;5048340;28;20188;-70
2021/01/28 06:07:08;;;;;;;16.60;3.03;;;21.20;99.90;;;;;;5047227;28;20680;-71
2021/01/28 06:09:44;;;;;;;14.20;2.60;;;21.20;99.90;;;;;;5049469;28;20172;-71
2021/01/28 06:12:26;;;;;;;17.23;3.00;;;21.20;99.90;;;;;;5051178;28;20183;-72
2021/01/28 06:15:15;;;;;;;19.53;3.10;;;21.00;99.90;;;;;;5046725;28;20202;-71
2021/01/28 06:17:51;;;;;;;26.10;4.33;;;20.90;99.90;;;;;;5049748;28;20872;-71
2021/01/28 06:20:31;;;;;;;30.83;4.20;;;20.70;99.90;;;;;;5051094;28;20184;-70
2021/01/28 06:23:23;;;;;;;31.60;3.80;;;20.70;99.90;;;;;;5045758;28;20183;-72
2021/01/28 06:26:08;;;;;;;18.93;4.00;;;20.50;99.90;;;;;;5066486;28;20573;-72
2021/01/28 06:28:59;;;;;;;26.97;4.40;;;20.40;99.90;;;;;;5051267;28;20699;-71
2021/01/28 06:31:35;;;;;;;24.50;4.83;;;20.40;99.90;;;;;;5051339;28;20184;-72
2021/01/28 06:34:27;;;;;;;24.17;4.07;;;20.40;99.90;;;;;;5050741;28;20550;-72
2021/01/28 06:37:09;;;;;;;19.80;3.67;;;20.40;99.90;;;;;;5030288;28;20732;-71
2021/01/28 06:39:47;;;;;;;23.17;4.33;;;20.50;99.90;;;;;;5048075;28;20187;-70
2021/01/28 06:42:26;;;;;;;31.90;5.00;;;20.40;99.90;;;;;;5048762;28;20218;-68
2021/01/28 06:45:18;;;;;;;19.17;3.40;;;20.40;99.90;;;;;;5048999;28;20179;-72
2021/01/28 06:47:46;;;;;;;24.57;3.90;;;20.30;99.90;;;;;;5047250;28;20184;-71
2021/01/28 06:50:22;;;;;;;14.87;3.13;;;20.30;99.90;;;;;;5039747;28;20226;-71
2021/01/28 06:53:03;;;;;;;22.23;3.93;;;20.30;99.90;;;;;;5051758;28;20171;-71
2021/01/28 06:55:42;;;;;;;22.60;3.73;;;20.30;99.90;;;;;;5039585;28;20198;-72
2021/01/28 06:58:15;;;;;;;26.80;4.40;;;20.40;99.90;;;;;;5063122;28;20185;-70
2021/01/28 07:00:50;;;;;;;26.87;4.27;;;20.40;99.90;;;;;;5055735;28;20585;-70
2021/01/28 07:03:30;;;;;;;25.23;4.17;;;20.40;99.90;;;;;;5035858;28;20176;-70
2021/01/28 07:06:12;;;;;;;33.10;4.83;;;20.30;99.90;;;;;;5049593;28;20187;-72
2021/01/28 07:08:52;;;;;;;23.13;4.33;;;20.40;99.90;;;;;;5049452;28;20187;-70
2021/01/28 07:11:43;;;;;;;19.50;3.73;;;20.40;99.90;;;;;;5055735;28;20189;-70
2021/01/28 07:14:15;;;;;;;18.37;3.53;;;20.40;99.90;;;;;;5049952;28;20274;-70
2021/01/28 07:16:55;;;;;;;20.70;3.80;;;20.40;99.90;;;;;;5053585;28;20223;-69
2021/01/28 07:19:33;;;;;;;17.13;3.83;;;20.30;99.90;;;;;;5067192;28;20306;-70
2021/01/28 07:22:26;;;;;;;24.53;3.50;;;20.30;99.90;;;;;;5053923;28;20191;-70
2021/01/28 07:24:54;;;;;;;19.03;3.17;;;20.30;99.90;;;;;;5038542;28;20180;-71
2021/01/28 07:27:42;;;;;;;19.50;3.70;;;20.30;99.90;;;;;;5046186;28;20756;-70
2021/01/28 07:30:47;;;;;;;19.40;3.40;;;20.20;99.90;;;;;;5048995;28;20183;-71
2021/01/28 07:33:27;;;;;;;19.07;3.37;;;20.00;99.90;;;;;;5055066;28;20172;-72
2021/01/28 07:36:21;;;;;;;30.77;15.67;;;19.80;99.90;;;;;;5054470;28;20199;-70
2021/01/28 07:38:57;;;;;;;17.83;3.07;;;19.80;99.90;;;;;;5054280;28;20269;-71
2021/01/28 07:41:28;;;;;;;22.93;4.70;;;19.70;99.90;;;;;;5055296;28;20302;-71
2021/01/28 07:44:27;;;;;;;20.90;3.60;;;19.70;99.90;;;;;;5054247;28;20184;-69
2021/01/28 07:46:58;;;;;;;17.93;3.53;;;19.70;99.90;;;;;;5045804;28;20180;-71
2021/01/28 07:49:28;;;;;;;21.50;3.03;;;19.60;99.90;;;;;;5054370;28;20677;-69
2021/01/28 07:52:16;;;;;;;22.80;3.63;;;19.60;99.90;;;;;;5035989;28;20180;-70
2021/01/28 07:54:55;;;;;;;23.87;3.90;;;19.50;99.90;;;;;;5054102;28;20199;-70
2021/01/28 07:57:45;;;;;;;29.07;4.40;;;19.50;99.90;;;;;;5052998;28;20246;-70
2021/01/28 08:00:18;;;;;;;23.97;3.90;;;19.50;99.90;;;;;;5045294;28;20561;-69
2021/01/28 08:02:58;;;;;;;23.33;3.70;;;19.40;99.90;;;;;;5054542;28;20180;-70
2021/01/28 08:05:26;;;;;;;30.43;5.00;;;19.40;99.90;;;;;;5042131;28;20554;-70
2021/01/28 08:08:12;;;;;;;27.40;4.47;;;19.40;99.90;;;;;;5053556;28;20187;-70
2021/01/28 08:10:42;;;;;;;20.17;3.97;;;19.40;99.90;;;;;;5051472;28;20180;-70
2021/01/28 08:13:28;;;;;;;28.03;4.50;;;19.50;99.90;;;;;;5041650;28;20685;-70
2021/01/28 08:16:06;;;;;;;23.13;4.00;;;19.50;99.90;;;;;;5053079;28;20207;-70
2021/01/28 08:18:40;;;;;;;21.77;3.43;;;19.50;99.90;;;;;;5053130;28;20259;-71
2021/01/28 08:21:29;;;;;;;18.57;3.87;;;19.50;99.90;;;;;;5053953;28;20192;-71
2021/01/28 08:24:11;;;;;;;16.63;4.20;;;19.50;99.90;;;;;;5054089;28;20252;-71
2021/01/28 08:26:42;;;;;;;19.47;3.97;;;19.50;99.90;;;;;;5053647;28;20684;-71
2021/01/28 08:29:19;;;;;;;28.07;5.03;;;19.50;99.90;;;;;;5055451;28;20693;-70
2021/01/28 08:31:52;;;;;;;21.03;3.20;;;19.60;99.90;;;;;;5051882;28;20171;-71
2021/01/28 08:34:26;;;;;;;23.03;3.83;;;19.50;99.90;;;;;;5046540;28;20191;-70
2021/01/28 08:36:55;;;;;;;20.93;3.10;;;19.60;99.90;;;;;;5053129;28;20223;-71
2021/01/28 08:39:31;;;;;;;16.83;3.47;;;19.60;99.90;;;;;;5053527;28;20717;-72
2021/01/28 08:42:16;;;;;;;19.10;3.40;;;19.60;99.90;;;;;;5046808;28;20180;-71
2021/01/28 08:44:45;;;;;;;20.60;3.60;;;19.60;99.90;;;;;;5052252;28;20179;-71
2021/01/28 08:47:22;;;;;;;20.10;4.17;;;19.60;99.90;;;;;;5053671;28;20176;-72
2021/01/28 08:50:07;;;;;;;17.77;3.63;;;19.60;99.90;;;;;;5053794;28;20183;-71
2021/01/28 08:52:36;;;;;;;23.73;3.17;;;19.50;99.90;;;;;;5053759;28;20202;-70
2021/01/28 08:55:18;;;;;;;20.90;3.33;;;19.40;99.90;;;;;;5053618;28;20229;-72
2021/01/28 08:57:46;;;;;;;24.77;4.47;;;19.40;99.90;;;;;;5046821;28;20207;-71
2021/01/28 09:00:17;;;;;;;22.57;4.13;;;19.30;99.90;;;;;;5045719;28;20176;-71
2021/01/28 09:02:48;;;;;;;29.07;4.57;;;19.30;99.90;;;;;;5053063;28;20180;-71
2021/01/28 09:05:20;;;;;;;21.97;5.27;;;19.20;99.90;;;;;;5052239;28;20204;-70
2021/01/28 09:08:03;;;;;;;21.63;3.70;;;19.20;99.90;;;;;;5053234;28;20743;-69
2021/01/28 09:10:40;;;;;;;21.80;4.57;;;19.20;99.90;;;;;;5052596;28;20215;-70
2021/01/28 09:13:29;;;;;;;19.70;4.50;;;19.20;99.90;;;;;;5039462;28;20171;-70
2021/01/28 09:16:29;;;;;;;23.63;6.43;;;19.20;99.90;;;;;;5052935;28;20208;-71
2021/01/28 09:19:09;;;;;;;21.93;4.03;;;19.30;99.90;;;;;;5018813;28;20294;-71
2021/01/28 09:21:40;;;;;;;20.60;3.67;;;19.20;99.90;;;;;;5039630;28;20175;-71
2021/01/28 09:24:24;;;;;;;22.27;4.03;;;19.20;99.90;;;;;;5053146;28;20184;-71
2021/01/28 09:27:18;;;;;;;30.10;4.40;;;19.20;99.90;;;;;;5052252;28;20211;-70
2021/01/28 09:29:48;;;;;;;22.40;4.90;;;19.20;99.90;;;;;;5052085;28;20643;-70
2021/01/28 09:32:19;;;;;;;19.43;4.03;;;19.20;99.90;;;;;;5053376;28;20548;-69
2021/01/28 09:35:03;;;;;;;22.00;3.27;;;19.20;99.90;;;;;;5052879;28;20190;-69
2021/01/28 09:37:32;;;;;;;21.20;3.97;;;19.20;99.90;;;;;;5052633;28;20223;-70
2021/01/28 09:39:59;;;;;;;21.60;3.67;;;19.20;99.90;;;;;;5052523;28;20187;-68
2021/01/28 09:42:31;;;;;;;25.80;4.00;;;19.10;99.90;;;;;;5043948;28;20184;-70
2021/01/28 09:45:08;;;;;;;24.87;5.20;;;19.20;99.90;;;;;;5052627;28;20184;-68
2021/01/28 09:47:36;;;;;;;29.67;4.97;;;19.20;99.90;;;;;;5052051;28;20188;-70
2021/01/28 09:50:10;;;;;;;27.93;4.53;;;19.10;99.90;;;;;;5051664;28;20188;-68
2021/01/28 09:52:43;;;;;;;34.67;13.83;;;19.10;99.90;;;;;;5051639;28;20219;-68
2021/01/28 09:55:30;;;;;;;25.27;3.87;;;19.20;99.90;;;;;;5052169;28;20269;-70
2021/01/28 09:57:58;;;;;;;20.63;3.90;;;19.20;99.90;;;;;;5052097;28;20270;-68
2021/01/28 10:00:26;;;;;;;24.50;4.70;;;19.10;99.90;;;;;;5052253;28;20216;-68
2021/01/28 10:03:01;;;;;;;23.30;4.27;;;19.10;99.90;;;;;;5052438;28;20178;-69
2021/01/28 10:05:32;;;;;;;24.00;4.93;;;19.20;99.90;;;;;;5052172;28;20570;-69
2021/01/28 10:08:00;;;;;;;33.83;4.50;;;19.10;99.90;;;;;;5052204;28;20183;-69
2021/01/28 10:10:30;;;;;;;24.57;4.23;;;19.10;99.90;;;;;;5052524;28;20180;-68
2021/01/28 10:13:01;;;;;;;29.23;4.77;;;19.20;99.90;;;;;;5050608;28;20663;-68
2021/01/28 10:15:29;;;;;;;23.83;4.63;;;19.10;99.90;;;;;;5051665;28;20259;-69
2021/01/28 10:17:59;;;;;;;33.03;5.50;;;19.20;99.90;;;;;;5051533;28;20191;-67
2021/01/28 10:20:27;;;;;;;26.93;4.60;;;19.20;99.90;;;;;;5050638;28;20186;-68
2021/01/28 10:22:57;;;;;;;32.93;4.87;;;19.20;99.90;;;;;;5052229;28;20179;-66
2021/01/28 10:25:25;;;;;;;23.17;4.20;;;19.10;99.90;;;;;;5052162;28;20179;-68
2021/01/28 10:27:53;;;;;;;28.90;4.70;;;19.10;99.90;;;;;;5052078;28;20782;-67
2021/01/28 10:30:22;;;;;;;21.90;4.10;;;19.10;99.90;;;;;;5056630;28;20282;-67
2021/01/28 10:32:51;;;;;;;34.80;5.20;;;19.10;99.90;;;;;;5054586;28;20603;-67
2021/01/28 10:35:23;;;;;;;28.80;4.70;;;19.10;99.90;;;;;;5053116;28;20192;-67
2021/01/28 10:37:51;;;;;;;24.43;4.07;;;19.10;99.90;;;;;;5056067;28;20212;-68
2021/01/28 10:40:19;;;;;;;26.03;4.03;;;19.10;99.90;;;;;;5041443;28;20194;-69
2021/01/28 10:42:48;;;;;;;35.10;4.70;;;19.10;99.90;;;;;;5044425;28;20180;-68
2021/01/28 10:45:22;;;;;;;27.27;4.10;;;19.20;99.90;;;;;;5044590;28;20218;-68
2021/01/28 10:47:51;;;;;;;32.43;5.67;;;19.20;99.90;;;;;;5045629;28;20184;-67
2021/01/28 10:50:21;;;;;;;27.10;5.20;;;19.20;99.90;;;;;;5055861;28;20222;-67
2021/01/28 10:52:49;;;;;;;28.47;5.10;;;19.20;99.90;;;;;;5055021;28;20178;-68
2021/01/28 10:55:17;;;;;;;24.30;5.40;;;19.20;99.90;;;;;;5055880;28;20183;-68
2021/01/28 10:57:45;;;;;;;34.93;5.57;;;19.30;99.90;;;;;;5054790;28;20219;-67
2021/01/28 11:00:14;;;;;;;34.37;4.83;;;19.30;99.90;;;;;;5054950;28;20180;-67
2021/01/28 11:02:41;;;;;;;35.57;5.40;;;19.30;99.90;;;;;;5055156;28;20635;-68
2021/01/28 11:05:15;;;;;;;25.53;4.90;;;19.30;99.90;;;;;;5055978;28;20179;-68
2021/01/28 11:07:43;;;;;;;33.10;4.73;;;19.40;99.90;;;;;;5048596;28;20192;-68
2021/01/28 11:10:14;;;;;;;30.07;4.83;;;19.40;99.90;;;;;;5045132;28;20183;-68
2021/01/28 11:12:43;;;;;;;30.93;5.27;;;19.40;99.90;;;;;;5054771;28;20184;-68
2021/01/28 11:15:11;;;;;;;31.83;5.83;;;19.40;99.90;;;;;;5051265;28;20737;-69
2021/01/28 11:17:39;;;;;;;33.50;5.53;;;19.50;99.90;;;;;;5053853;28;20293;-70
2021/01/28 11:20:10;;;;;;;27.53;4.57;;;19.40;99.90;;;;;;5053590;28;20286;-70
2021/01/28 11:22:41;;;;;;;21.53;4.27;;;19.50;99.90;;;;;;5054024;28;20366;-68
2021/01/28 11:25:13;;;;;;;35.23;5.47;;;19.50;99.90;;;;;;5053403;28;20261;-71
2021/01/28 11:27:41;;;;;;;26.03;4.07;;;19.50;99.90;;;;;;5055273;28;20211;-70
2021/01/28 11:30:11;;;;;;;26.60;4.90;;;19.40;99.90;;;;;;5055559;28;20176;-70
2021/01/28 11:32:39;;;;;;;33.57;4.97;;;19.40;99.90;;;;;;5055065;28;20173;-70
2021/01/28 11:35:07;;;;;;;42.87;6.70;;;19.50;99.90;;;;;;5053287;28;20202;-70
2021/01/28 11:37:35;;;;;;;31.13;4.60;;;19.40;99.90;;;;;;5055198;28;20560;-70
2021/01/28 11:40:03;;;;;;;28.47;4.40;;;19.50;99.90;;;;;;5053867;28;20672;-70
2021/01/28 11:42:30;;;;;;;30.93;5.03;;;19.40;99.90;;;;;;5053919;28;20196;-71
2021/01/28 11:44:58;;;;;;;25.03;4.53;;;19.50;99.90;;;;;;5053429;28;20666;-71
2021/01/28 11:47:26;;;;;;;30.77;4.70;;;19.40;99.90;;;;;;5049731;28;20181;-70
2021/01/28 11:49:53;;;;;;;35.47;6.17;;;19.50;99.90;;;;;;5054562;28;20294;-70
2021/01/28 11:52:22;;;;;;;17.97;4.70;;;19.50;99.90;;;;;;5054481;28;20196;-71
2021/01/28 11:54:50;;;;;;;26.47;5.03;;;19.50;99.90;;;;;;5052626;28;20180;-70
2021/01/28 11:57:17;;;;;;;40.50;6.17;;;19.50;99.90;;;;;;5035657;28;20276;-71
2021/01/28 11:59:44;;;;;;;37.43;5.00;;;19.50;99.90;;;;;;5047872;28;20200;-71
2021/01/28 12:02:12;;;;;;;30.67;4.97;;;19.50;99.90;;;;;;5047834;28;20604;-70
2021/01/28 12:04:39;;;;;;;27.07;4.40;;;19.50;99.90;;;;;;5049809;28;20188;-70
2021/01/28 12:07:07;;;;;;;27.37;4.23;;;19.50;99.90;;;;;;5053392;28;20179;-71
2021/01/28 12:09:34;;;;;;;30.83;5.13;;;19.50;99.90;;;;;;5054708;28;20188;-71
2021/01/28 12:12:01;;;;;;;30.57;4.90;;;19.60;99.90;;;;;;5050283;28;20184;-72
2021/01/28 12:14:29;;;;;;;29.90;5.03;;;19.60;99.90;;;;;;5048428;28;20227;-71
2021/01/28 12:16:56;;;;;;;30.17;4.33;;;19.60;99.90;;;;;;5053916;28;20473;-71
2021/01/28 12:19:24;;;;;;;42.27;5.20;;;19.70;99.90;;;;;;5053341;28;20180;-71
2021/01/28 12:21:51;;;;;;;26.00;4.57;;;19.60;99.90;;;;;;5054179;28;20549;-72
2021/01/28 12:24:18;;;;;;;30.23;5.57;;;19.60;99.90;;;;;;5054581;28;20650;-71
2021/01/28 12:26:46;;;;;;;37.23;5.37;;;19.60;99.90;;;;;;5053863;28;20278;-71
2021/01/28 12:29:13;;;;;;;31.83;4.33;;;19.60;99.90;;;;;;5053466;28;20190;-71
2021/01/28 12:31:40;;;;;;;29.73;4.83;;;19.60;99.90;;;;;;5054277;28;20679;-71
2021/01/28 12:34:07;;;;;;;23.10;3.50;;;19.70;99.90;;;;;;5051405;28;22944;-70
2021/01/28 12:36:35;;;;;;;21.93;3.53;;;19.70;99.90;;;;;;5050264;28;20293;-71
2021/01/28 12:39:03;;;;;;;24.83;3.93;;;19.70;99.90;;;;;;5053454;28;20271;-70
2021/01/28 12:41:31;;;;;;;22.20;3.67;;;19.80;99.90;;;;;;5051576;28;20206;-71
2021/01/28 12:43:58;;;;;;;24.87;4.20;;;19.80;99.90;;;;;;5052967;28;20191;-71
2021/01/28 12:46:25;;;;;;;28.17;4.30;;;19.90;99.90;;;;;;5053500;28;20184;-71
2021/01/28 12:48:53;;;;;;;30.23;4.10;;;19.90;99.90;;;;;;5053805;28;20206;-71
2021/01/28 12:51:20;;;;;;;28.27;5.03;;;20.00;99.90;;;;;;5053083;28;20195;-71
2021/01/28 12:53:47;;;;;;;27.87;3.80;;;20.00;99.90;;;;;;5052996;28;20184;-71
2021/01/28 12:56:15;;;;;;;22.00;3.70;;;20.00;99.90;;;;;;5053123;28;20673;-71
2021/01/28 12:58:42;;;;;;;23.63;3.87;;;20.00;99.90;;;;;;5053261;28;20194;-71
2021/01/28 13:01:10;;;;;;;22.63;4.17;;;20.00;99.90;;;;;;5053740;28;20180;-71
2021/01/28 13:03:37;;;;;;;27.47;4.53;;;20.00;99.90;;;;;;5046936;28;20176;-71